Time;durP1;ratioP1;P1;durP2;ratioP2;P2;SDS_P1;SDS_P2;PMS_P1;PMS_P2;Temp;Humidity;BMP_temperature;BMP_pressure;BME280_temperature;BME280_humidity;BME280_pressure;Samples;Min_cycle;Max_cycle;Signal;HPM_P1;HPM_P2
2024/04/10 00:01:06;;;;;;;6.80;2.35;;;;;;;;;;5347262;26;20333;-87
2024/04/10 00:03:34;;;;;;;2.20;1.95;;;;;;;;;;5348808;26;20460;-86
2024/04/10 00:06:03;;;;;;;4.72;1.95;;;;;;;;;;5347224;26;20314;-85
2024/04/10 00:08:35;;;;;;;5.13;2.03;;;;;;;;;;5347463;26;20302;-86
2024/04/10 00:11:03;;;;;;;5.22;1.98;;;;;;;;;;5348229;26;20366;-86
2024/04/10 00:13:32;;;;;;;5.28;2.38;;;;;;;;;;5348811;26;20331;-87
2024/04/10 00:16:06;;;;;;;8.07;2.42;;;;;;;;;;5348801;26;20317;-86
2024/04/10 00:18:36;;;;;;;9.70;2.45;;;;;;;;;;5347127;26;20314;-86
2024/04/10 00:21:04;;;;;;;4.28;1.83;;;;;;;;;;5346930;26;20437;-88
2024/04/10 00:23:33;;;;;;;5.07;2.30;;;;;;;;;;5346977;26;20409;-85
2024/04/10 00:26:02;;;;;;;4.53;2.50;;;;;;;;;;5348291;26;20329;-86
2024/04/10 00:28:31;;;;;;;4.30;2.17;;;;;;;;;;5346971;26;20029;-86
2024/04/10 00:31:08;;;;;;;5.03;2.08;;;;;;;;;;5345449;26;20376;-85
2024/04/10 00:33:38;;;;;;;4.38;2.50;;;;;;;;;;5348223;26;20025;-85
2024/04/10 00:36:08;;;;;;;5.25;2.67;;;;;;;;;;5348253;26;20412;-86
2024/04/10 00:38:36;;;;;;;4.85;2.08;;;;;;;;;;5347006;26;20441;-86
2024/04/10 00:41:05;;;;;;;6.78;2.00;;;;;;;;;;5347564;26;20349;-86
2024/04/10 00:43:33;;;;;;;2.75;1.80;;;;;;;;;;5348255;26;20333;-87
2024/04/10 00:46:08;;;;;;;5.45;1.50;;;;;;;;;;5348091;26;20411;-84
2024/04/10 00:48:40;;;;;;;5.45;1.88;;;;;;;;;;5347940;26;20310;-86
2024/04/10 00:51:09;;;;;;;3.72;1.70;;;;;;;;;;5346486;26;20345;-88
2024/04/10 00:53:37;;;;;;;2.70;1.85;;;;;;;;;;5346384;26;20367;-86
2024/04/10 00:56:05;;;;;;;3.03;1.60;;;;;;;;;;5347116;26;20442;-86
2024/04/10 00:58:34;;;;;;;4.38;1.70;;;;;;;;;;5346443;26;20445;-86
2024/04/10 01:01:02;;;;;;;4.15;1.73;;;;;;;;;;5346727;26;20446;-86
2024/04/10 01:03:31;;;;;;;5.93;1.52;;;;;;;;;;5346715;26;19997;-86
2024/04/10 01:06:01;;;;;;;4.60;1.60;;;;;;;;;;5348009;26;20463;-85
2024/04/10 01:08:29;;;;;;;3.00;1.45;;;;;;;;;;5346460;26;20468;-86
2024/04/10 01:10:59;;;;;;;4.78;1.33;;;;;;;;;;5347599;26;20430;-84
2024/04/10 01:13:27;;;;;;;5.40;1.60;;;;;;;;;;5346013;26;20341;-83
2024/04/10 01:15:55;;;;;;;3.35;1.33;;;;;;;;;;5348021;26;20008;-83
2024/04/10 01:18:23;;;;;;;3.33;1.40;;;;;;;;;;5346324;26;20008;-84
2024/04/10 01:20:51;;;;;;;5.63;1.80;;;;;;;;;;5346187;26;20425;-85
2024/04/10 01:23:20;;;;;;;2.50;1.38;;;;;;;;;;5347701;26;20452;-84
2024/04/10 01:25:48;;;;;;;3.47;1.50;;;;;;;;;;5347637;26;20341;-84
2024/04/10 01:28:16;;;;;;;5.22;1.50;;;;;;;;;;5346104;26;20460;-84
2024/04/10 01:30:44;;;;;;;4.80;1.50;;;;;;;;;;5347592;26;20441;-84
2024/04/10 01:33:12;;;;;;;5.00;1.50;;;;;;;;;;5347521;26;20322;-84
2024/04/10 01:35:41;;;;;;;4.88;2.22;;;;;;;;;;5347700;26;20328;-84
2024/04/10 01:38:09;;;;;;;2.45;1.40;;;;;;;;;;5347438;26;20348;-84
2024/04/10 01:40:37;;;;;;;1.42;1.25;;;;;;;;;;5345937;26;20429;-83
2024/04/10 01:43:05;;;;;;;7.40;1.63;;;;;;;;;;5348410;26;20424;-84
2024/04/10 01:45:36;;;;;;;5.85;1.85;;;;;;;;;;5350610;26;20487;-83
2024/04/10 01:48:04;;;;;;;2.50;1.50;;;;;;;;;;5349243;26;20433;-83
2024/04/10 01:50:33;;;;;;;6.95;1.25;;;;;;;;;;5350531;26;20001;-84
2024/04/10 01:53:01;;;;;;;5.70;1.63;;;;;;;;;;5350733;26;20461;-84
2024/04/10 01:55:29;;;;;;;2.40;1.67;;;;;;;;;;5350323;26;20341;-84
2024/04/10 01:57:57;;;;;;;4.22;1.50;;;;;;;;;;5349014;26;20337;-84
2024/04/10 02:00:25;;;;;;;3.72;1.60;;;;;;;;;;5350521;26;20452;-84
2024/04/10 02:02:53;;;;;;;7.90;2.10;;;;;;;;;;5350492;26;20467;-84
2024/04/10 02:05:21;;;;;;;4.55;1.35;;;;;;;;;;5349162;26;20001;-84
2024/04/10 02:07:50;;;;;;;3.38;1.52;;;;;;;;;;5350221;26;20333;-84
2024/04/10 02:10:18;;;;;;;1.73;1.35;;;;;;;;;;5348793;26;20475;-84
2024/04/10 02:12:46;;;;;;;2.70;1.38;;;;;;;;;;5350459;26;20449;-84
2024/04/10 02:15:14;;;;;;;3.80;1.45;;;;;;;;;;5350478;26;19993;-84
2024/04/10 02:17:42;;;;;;;2.65;1.40;;;;;;;;;;5350440;26;20453;-84
2024/04/10 02:20:10;;;;;;;4.22;1.80;;;;;;;;;;5348715;26;20425;-84
2024/04/10 02:22:41;;;;;;;5.85;1.83;;;;;;;;;;5349013;26;20322;-84
2024/04/10 02:25:09;;;;;;;2.75;1.35;;;;;;;;;;5350110;26;20333;-84
2024/04/10 02:27:37;;;;;;;2.83;1.73;;;;;;;;;;5350218;26;20461;-84
2024/04/10 02:30:06;;;;;;;4.70;1.83;;;;;;;;;;5350247;26;20549;-84
2024/04/10 02:32:34;;;;;;;6.18;2.47;;;;;;;;;;5350062;26;20437;-84
2024/04/10 02:35:03;;;;;;;6.78;2.10;;;;;;;;;;5350150;26;20440;-83
2024/04/10 02:37:31;;;;;;;4.28;1.58;;;;;;;;;;5350061;26;20449;-84
2024/04/10 02:39:59;;;;;;;3.80;1.38;;;;;;;;;;5350039;26;20436;-84
2024/04/10 02:42:27;;;;;;;3.67;1.60;;;;;;;;;;5350103;26;20429;-84
2024/04/10 02:44:55;;;;;;;7.97;1.60;;;;;;;;;;5342418;26;20446;-84
2024/04/10 02:47:23;;;;;;;4.63;1.33;;;;;;;;;;5315624;27;20496;-84
2024/04/10 02:49:51;;;;;;;7.68;1.42;;;;;;;;;;5315391;27;20550;-84
2024/04/10 02:52:19;;;;;;;3.83;1.60;;;;;;;;;;5315358;27;20461;-84
2024/04/10 02:54:47;;;;;;;3.95;1.73;;;;;;;;;;5314094;26;20327;-84
2024/04/10 02:57:15;;;;;;;11.25;2.30;;;;;;;;;;5315275;27;20454;-84
2024/04/10 02:59:43;;;;;;;2.78;1.60;;;;;;;;;;5313841;27;20009;-84
2024/04/10 03:02:11;;;;;;;4.22;1.60;;;;;;;;;;5314899;27;20386;-84
2024/04/10 03:04:40;;;;;;;4.35;1.55;;;;;;;;;;5315182;26;20346;-84
2024/04/10 03:07:09;;;;;;;5.72;2.03;;;;;;;;;;5314895;27;20381;-84
2024/04/10 03:09:37;;;;;;;3.35;2.00;;;;;;;;;;5315496;26;20323;-84
2024/04/10 03:12:07;;;;;;;6.82;1.90;;;;;;;;;;5315069;27;20450;-84
2024/04/10 03:14:37;;;;;;;6.50;1.95;;;;;;;;;;5313496;27;20042;-86
2024/04/10 03:17:05;;;;;;;7.50;2.92;;;;;;;;;;5313386;27;20338;-84
2024/04/10 03:19:34;;;;;;;4.65;2.60;;;;;;;;;;5315067;27;20434;-86
2024/04/10 03:22:01;;;;;;;13.13;9.02;;;;;;;;;;5315120;27;20442;-86
2024/04/10 03:24:29;;;;;;;5.72;3.65;;;;;;;;;;5314826;27;20318;-87
2024/04/10 03:26:57;;;;;;;4.57;1.50;;;;;;;;;;5314756;27;20338;-87
2024/04/10 03:29:26;;;;;;;4.10;3.13;;;;;;;;;;5314794;27;20330;-86
2024/04/10 03:31:55;;;;;;;4.15;1.63;;;;;;;;;;5314893;26;20350;-86
2024/04/10 03:34:23;;;;;;;3.88;1.50;;;;;;;;;;5314946;26;20323;-86
2024/04/10 03:36:53;;;;;;;3.42;1.60;;;;;;;;;;5314930;27;20466;-87
2024/04/10 03:39:21;;;;;;;5.78;1.58;;;;;;;;;;5314985;26;20334;-86
2024/04/10 03:41:49;;;;;;;2.58;1.80;;;;;;;;;;5314893;27;19998;-87
2024/04/10 03:44:17;;;;;;;7.75;2.05;;;;;;;;;;5315527;26;20341;-86
2024/04/10 03:46:45;;;;;;;6.57;1.90;;;;;;;;;;5349240;26;20008;-86
2024/04/10 03:49:13;;;;;;;4.57;1.38;;;;;;;;;;5349226;26;20457;-86
2024/04/10 03:51:41;;;;;;;7.35;1.92;;;;;;;;;;5348764;26;20356;-87
2024/04/10 03:54:10;;;;;;;3.40;1.38;;;;;;;;;;5348908;26;20340;-87
2024/04/10 03:56:38;;;;;;;6.63;1.88;;;;;;;;;;5349172;26;20433;-86
2024/04/10 03:59:08;;;;;;;6.07;1.83;;;;;;;;;;5347185;26;20368;-86
2024/04/10 04:01:36;;;;;;;5.50;1.80;;;;;;;;;;5349053;26;20437;-86
2024/04/10 04:04:04;;;;;;;2.75;1.65;;;;;;;;;;5347329;26;20345;-86
2024/04/10 04:06:32;;;;;;;6.57;2.60;;;;;;;;;;5348481;26;20499;-87
2024/04/10 04:09:00;;;;;;;8.50;3.38;;;;;;;;;;5347357;26;20468;-87
2024/04/10 04:11:29;;;;;;;2.65;2.45;;;;;;;;;;5347369;26;20468;-86
2024/04/10 04:13:57;;;;;;;5.05;2.30;;;;;;;;;;5349064;26;20325;-87
2024/04/10 04:16:25;;;;;;;7.65;2.70;;;;;;;;;;5348779;26;20457;-87
2024/04/10 04:18:54;;;;;;;4.43;1.52;;;;;;;;;;5348605;26;20325;-87
2024/04/10 04:21:23;;;;;;;6.45;1.67;;;;;;;;;;5348575;26;20413;-87
2024/04/10 04:23:52;;;;;;;3.95;1.48;;;;;;;;;;5348594;26;20332;-87
2024/04/10 04:26:20;;;;;;;8.68;1.90;;;;;;;;;;5348915;26;20441;-87
2024/04/10 04:28:49;;;;;;;6.82;1.83;;;;;;;;;;5348374;26;20337;-86
2024/04/10 04:31:17;;;;;;;3.15;1.40;;;;;;;;;;5346924;26;20330;-87
2024/04/10 04:33:45;;;;;;;5.93;1.88;;;;;;;;;;5348457;26;20333;-87
2024/04/10 04:36:13;;;;;;;5.03;1.75;;;;;;;;;;5348263;26;20341;-87
2024/04/10 04:38:41;;;;;;;3.38;1.50;;;;;;;;;;5348524;26;20325;-87
2024/04/10 04:41:09;;;;;;;5.25;1.98;;;;;;;;;;5346735;26;20341;-87
2024/04/10 04:43:37;;;;;;;9.20;2.17;;;;;;;;;;5346504;26;20330;-87
2024/04/10 04:46:11;;;;;;;5.90;3.03;;;;;;;;;;5348572;26;20433;-87
2024/04/10 04:48:39;;;;;;;11.65;5.95;;;;;;;;;;5348344;26;20333;-87
2024/04/10 04:51:10;;;;;;;7.47;4.03;;;;;;;;;;5348173;26;20070;-87
2024/04/10 04:53:38;;;;;;;7.35;3.80;;;;;;;;;;5347685;26;20374;-87
2024/04/10 04:56:06;;;;;;;5.70;2.85;;;;;;;;;;5348186;26;20445;-87
2024/04/10 04:58:34;;;;;;;5.07;2.35;;;;;;;;;;5348014;26;20337;-87
2024/04/10 05:01:02;;;;;;;5.75;2.47;;;;;;;;;;5347682;26;20341;-84
2024/04/10 05:06:17;;;;;;;5.35;2.40;;;;;;;;;;5348080;26;20479;-85
2024/04/10 05:08:49;;;;;;;20.92;5.28;;;;;;;;;;5347981;26;20441;-84
2024/04/10 05:11:19;;;;;;;6.00;3.17;;;;;;;;;;5347849;26;20290;-84
2024/04/10 05:13:48;;;;;;;6.88;3.65;;;;;;;;;;5346173;26;20449;-85
2024/04/10 05:16:16;;;;;;;3.20;1.60;;;;;;;;;;5348030;26;20344;-84
2024/04/10 05:18:45;;;;;;;3.38;2.00;;;;;;;;;;5345158;26;20332;-84
2024/04/10 05:21:13;;;;;;;4.22;1.83;;;;;;;;;;5347930;26;20364;-84
2024/04/10 05:23:41;;;;;;;7.03;1.60;;;;;;;;;;5347810;26;20449;-84
2024/04/10 05:26:09;;;;;;;4.40;1.35;;;;;;;;;;5347738;26;20336;-85
2024/04/10 05:28:37;;;;;;;3.60;1.10;;;;;;;;;;5346436;26;20449;-84
2024/04/10 05:31:10;;;;;;;3.95;1.42;;;;;;;;;;5347660;26;20361;-84
2024/04/10 05:33:39;;;;;;;2.38;1.05;;;;;;;;;;5348380;26;20413;-85
2024/04/10 05:36:07;;;;;;;5.53;1.35;;;;;;;;;;5347714;26;20461;-84
2024/04/10 05:38:35;;;;;;;3.15;1.33;;;;;;;;;;5347816;26;20409;-85
2024/04/10 05:41:03;;;;;;;2.42;1.13;;;;;;;;;;5347489;26;20464;-85
2024/04/10 05:43:31;;;;;;;4.82;1.10;;;;;;;;;;5345910;26;20322;-85
2024/04/10 05:45:59;;;;;;;3.78;1.27;;;;;;;;;;5346381;26;20417;-85
2024/04/10 05:48:28;;;;;;;2.08;0.90;;;;;;;;;;5346007;26;20325;-85
2024/04/10 05:50:59;;;;;;;4.57;1.40;;;;;;;;;;5346151;26;20456;-85
2024/04/10 05:53:28;;;;;;;2.60;1.05;;;;;;;;;;5345892;26;20477;-84
2024/04/10 05:55:56;;;;;;;2.55;1.55;;;;;;;;;;5347397;26;20477;-85
2024/04/10 05:58:24;;;;;;;3.00;1.33;;;;;;;;;;5347414;26;20483;-85
2024/04/10 06:00:52;;;;;;;4.03;1.58;;;;;;;;;;5347344;26;20463;-85
2024/04/10 06:03:22;;;;;;;3.58;1.35;;;;;;;;;;5347722;26;20001;-85
2024/04/10 06:05:50;;;;;;;3.92;1.20;;;;;;;;;;5347209;26;20376;-85
2024/04/10 06:08:18;;;;;;;4.82;1.00;;;;;;;;;;5347198;26;20352;-85
2024/04/10 06:10:52;;;;;;;4.40;1.38;;;;;;;;;;5347198;26;20007;-85
2024/04/10 06:13:20;;;;;;;4.72;0.90;;;;;;;;;;5345948;26;20333;-85
2024/04/10 06:15:58;;;;;;;3.50;1.30;;;;;;;;;;5347367;26;20456;-84
2024/04/10 06:18:25;;;;;;;3.63;1.35;;;;;;;;;;5344922;26;20372;-85
2024/04/10 06:20:58;;;;;;;2.92;1.65;;;;;;;;;;5346762;26;20336;-84
2024/04/10 06:23:30;;;;;;;9.80;1.60;;;;;;;;;;5347034;26;20449;-85
2024/04/10 06:25:58;;;;;;;3.25;0.85;;;;;;;;;;5346796;26;20446;-85
2024/04/10 06:28:26;;;;;;;4.50;1.42;;;;;;;;;;5347160;26;20425;-84
2024/04/10 06:30:58;;;;;;;4.97;1.63;;;;;;;;;;5350346;26;20372;-85
2024/04/10 06:33:26;;;;;;;5.95;1.30;;;;;;;;;;5348432;26;20359;-84
2024/04/10 06:35:54;;;;;;;5.82;1.45;;;;;;;;;;5350309;26;20449;-85
2024/04/10 06:38:22;;;;;;;4.40;1.52;;;;;;;;;;5350203;26;20345;-84
2024/04/10 06:40:57;;;;;;;2.97;1.33;;;;;;;;;;5349023;26;20342;-85
2024/04/10 06:43:26;;;;;;;3.90;1.70;;;;;;;;;;5350371;26;20464;-84
2024/04/10 06:45:57;;;;;;;3.10;1.00;;;;;;;;;;5350345;26;20464;-85
2024/04/10 06:48:26;;;;;;;4.55;1.30;;;;;;;;;;5350106;26;20016;-84
2024/04/10 06:51:02;;;;;;;4.95;1.40;;;;;;;;;;5349956;26;20353;-85
2024/04/10 06:53:30;;;;;;;4.20;0.98;;;;;;;;;;5348400;26;20333;-85
2024/04/10 06:56:03;;;;;;;4.00;1.30;;;;;;;;;;5350091;26;20009;-85
2024/04/10 06:58:34;;;;;;;3.95;0.95;;;;;;;;;;5349881;26;20338;-85
2024/04/10 07:01:02;;;;;;;4.68;1.30;;;;;;;;;;5348573;26;20345;-85
2024/04/10 07:03:34;;;;;;;3.45;1.20;;;;;;;;;;5349839;26;20001;-85
2024/04/10 07:06:06;;;;;;;3.05;1.17;;;;;;;;;;5348197;26;20459;-85
2024/04/10 07:08:35;;;;;;;3.55;1.27;;;;;;;;;;5349766;26;20322;-83
2024/04/10 07:11:14;;;;;;;3.30;1.30;;;;;;;;;;5348083;26;20407;-85
2024/04/10 07:13:53;;;;;;;4.72;1.45;;;;;;;;;;5349712;26;20337;-87
2024/04/10 07:16:26;;;;;;;5.18;1.95;;;;;;;;;;5349647;26;20449;-84
2024/04/10 07:18:56;;;;;;;2.35;1.20;;;;;;;;;;5349400;26;20392;-85
2024/04/10 07:21:25;;;;;;;2.22;1.10;;;;;;;;;;5349597;26;20437;-84
2024/04/10 07:23:53;;;;;;;5.28;1.60;;;;;;;;;;5349556;26;20044;-85
2024/04/10 07:26:27;;;;;;;4.55;1.40;;;;;;;;;;5349661;26;20340;-84
2024/04/10 07:28:56;;;;;;;3.90;1.27;;;;;;;;;;5347954;26;20387;-84
2024/04/10 07:31:31;;;;;;;5.40;1.40;;;;;;;;;;5348066;26;20329;-85
2024/04/10 07:34:01;;;;;;;4.13;1.27;;;;;;;;;;5349657;26;20001;-84
2024/04/10 07:36:33;;;;;;;4.30;1.67;;;;;;;;;;5349402;26;20415;-85
2024/04/10 07:39:07;;;;;;;4.75;1.30;;;;;;;;;;5349432;26;20426;-85
2024/04/10 07:41:36;;;;;;;4.68;1.27;;;;;;;;;;5347132;26;20448;-85
2024/04/10 07:44:05;;;;;;;4.45;1.67;;;;;;;;;;5349307;26;20448;-85
2024/04/10 07:46:34;;;;;;;5.57;1.40;;;;;;;;;;5349170;26;20464;-85
2024/04/10 07:49:03;;;;;;;5.03;1.50;;;;;;;;;;5349110;26;20387;-84
2024/04/10 07:51:31;;;;;;;6.95;1.55;;;;;;;;;;5349086;26;20345;-83
2024/04/10 07:53:59;;;;;;;3.08;1.50;;;;;;;;;;5349175;26;20322;-85
2024/04/10 07:56:27;;;;;;;3.63;1.38;;;;;;;;;;5349161;26;20438;-85
2024/04/10 07:58:55;;;;;;;5.47;2.08;;;;;;;;;;5349202;26;20333;-85
2024/04/10 08:01:23;;;;;;;6.15;1.60;;;;;;;;;;5349184;26;20491;-85
2024/04/10 08:03:52;;;;;;;6.57;1.77;;;;;;;;;;5349143;26;20441;-83
2024/04/10 08:06:20;;;;;;;12.55;2.17;;;;;;;;;;5347741;26;20329;-86
2024/04/10 08:08:48;;;;;;;4.70;1.48;;;;;;;;;;5349014;26;20337;-86
2024/04/10 08:11:21;;;;;;;4.28;1.67;;;;;;;;;;5347649;26;20460;-86
2024/04/10 08:13:51;;;;;;;5.43;1.95;;;;;;;;;;5349024;26;20469;-87
2024/04/10 08:16:20;;;;;;;8.88;1.98;;;;;;;;;;5348815;26;20344;-86
2024/04/10 08:18:48;;;;;;;4.57;1.60;;;;;;;;;;5349108;26;20448;-85
2024/04/10 08:21:16;;;;;;;5.35;1.90;;;;;;;;;;5348983;26;20445;-85
2024/04/10 08:23:45;;;;;;;8.48;1.92;;;;;;;;;;5348589;26;20341;-85
2024/04/10 08:26:14;;;;;;;6.15;1.70;;;;;;;;;;5348624;26;20008;-86
2024/04/10 08:28:45;;;;;;;1.63;1.00;;;;;;;;;;5348766;26;20329;-85
2024/04/10 08:31:14;;;;;;;2.17;1.65;;;;;;;;;;5347269;26;20425;-84
2024/04/10 08:33:46;;;;;;;7.32;1.65;;;;;;;;;;5348638;26;20341;-86
2024/04/10 08:36:16;;;;;;;3.65;1.48;;;;;;;;;;5347054;26;20433;-85
2024/04/10 08:38:45;;;;;;;5.57;1.70;;;;;;;;;;5348528;26;20376;-85
2024/04/10 08:41:17;;;;;;;7.38;2.20;;;;;;;;;;5348218;26;20051;-86
2024/04/10 08:43:46;;;;;;;5.55;1.88;;;;;;;;;;5348182;26;20340;-85
2024/04/10 08:46:15;;;;;;;8.57;1.80;;;;;;;;;;5341033;26;20349;-84
2024/04/10 08:48:44;;;;;;;3.97;1.73;;;;;;;;;;5313022;27;20334;-86
2024/04/10 08:51:13;;;;;;;5.43;1.40;;;;;;;;;;5314136;27;20008;-87
2024/04/10 08:53:42;;;;;;;4.82;1.48;;;;;;;;;;5312294;27;20343;-86
2024/04/10 08:56:10;;;;;;;3.78;1.30;;;;;;;;;;5313072;27;20446;-86
2024/04/10 08:58:39;;;;;;;2.72;1.30;;;;;;;;;;5314060;26;20449;-86
2024/04/10 09:01:07;;;;;;;4.32;1.30;;;;;;;;;;5314202;26;20450;-86
2024/04/10 09:03:36;;;;;;;5.93;1.60;;;;;;;;;;5312430;27;20461;-86
2024/04/10 09:06:08;;;;;;;7.43;1.77;;;;;;;;;;5312314;27;20338;-87
2024/04/10 09:08:38;;;;;;;4.35;1.50;;;;;;;;;;5312467;27;20001;-84
2024/04/10 09:11:07;;;;;;;2.28;1.50;;;;;;;;;;5314028;27;20452;-85
2024/04/10 09:15:56;;;;;;;5.85;1.52;;;;;;;;;;5511210;25;20314;-79
2024/04/10 09:18:24;;;;;;;3.65;1.45;;;;;;;;;;5539741;25;20455;-79
2024/04/10 09:21:14;;;;;;;4.13;1.38;;;;;;;;;;5510489;26;20010;-80
2024/04/10 09:23:42;;;;;;;4.30;1.60;;;;;;;;;;5510632;25;19998;-81
2024/04/10 09:26:15;;;;;;;3.05;1.35;;;;;;;;;;5510652;26;19998;-80
2024/04/10 09:28:43;;;;;;;3.63;1.40;;;;;;;;;;5509659;26;19998;-80
2024/04/10 09:31:21;;;;;;;2.50;1.25;;;;;;;;;;5471649;26;20031;-79
2024/04/10 09:33:49;;;;;;;2.42;1.10;;;;;;;;;;5474237;26;19994;-79
2024/04/10 09:36:17;;;;;;;3.22;0.90;;;;;;;;;;5474350;26;19999;-79
2024/04/10 09:38:47;;;;;;;4.90;1.17;;;;;;;;;;5487368;26;20065;-79
2024/04/10 09:41:16;;;;;;;4.47;1.25;;;;;;;;;;5538956;25;19998;-80
2024/04/10 09:43:45;;;;;;;2.00;1.00;;;;;;;;;;5509878;25;19994;-78
2024/04/10 09:46:14;;;;;;;1.75;1.10;;;;;;;;;;5539524;25;20324;-80
2024/04/10 09:48:43;;;;;;;3.20;1.10;;;;;;;;;;5540743;25;20010;-80
2024/04/10 09:51:11;;;;;;;2.97;0.98;;;;;;;;;;5511028;26;19998;-80
2024/04/10 09:53:38;;;;;;;2.50;1.00;;;;;;;;;;5510139;25;20331;-81
2024/04/10 09:56:09;;;;;;;1.95;1.10;;;;;;;;;;5480102;26;20013;-80
2024/04/10 09:58:39;;;;;;;2.25;1.10;;;;;;;;;;5509867;26;19997;-79
2024/04/10 10:01:23;;;;;;;2.17;0.75;;;;;;;;;;5523672;25;20043;-82
2024/04/10 10:03:50;;;;;;;;;;;;;;;;;;5539658;25;20001;-81
2024/04/10 10:06:26;;;;;;;2.78;1.13;;;;;;;;;;5509176;26;19965;-82
2024/04/10 10:08:54;;;;;;;1.80;0.50;;;;;;;;;;5508793;26;20002;-83
2024/04/10 10:11:24;;;;;;;2.40;0.85;;;;;;;;;;5507541;26;20013;-78
2024/04/10 10:13:59;;;;;;;4.60;0.73;;;;;;;;;;5507997;26;20408;-78
2024/04/10 10:16:27;;;;;;;1.52;0.80;;;;;;;;;;5508736;26;20034;-80
2024/04/10 10:18:59;;;;;;;1.08;0.90;;;;;;;;;;5510541;25;20005;-79
2024/04/10 10:21:28;;;;;;;4.40;1.05;;;;;;;;;;5511562;25;20466;-79
2024/04/10 10:23:57;;;;;;;4.18;1.20;;;;;;;;;;5506733;26;20002;-79
2024/04/10 10:26:25;;;;;;;5.25;1.20;;;;;;;;;;5495399;26;20071;-79
2024/04/10 10:29:00;;;;;;;2.88;1.10;;;;;;;;;;5491224;26;20050;-78
2024/04/10 10:31:32;;;;;;;1.17;0.85;;;;;;;;;;5520895;26;19998;-77
2024/04/10 10:34:14;;;;;;;1.58;0.90;;;;;;;;;;5521543;26;20369;-76
2024/04/10 10:36:42;;;;;;;3.92;1.00;;;;;;;;;;5522663;26;19998;-78
2024/04/10 10:39:16;;;;;;;4.05;1.10;;;;;;;;;;5493754;26;20355;-81
2024/04/10 10:41:43;;;;;;;3.47;1.13;;;;;;;;;;5494816;26;20072;-81
2024/04/10 10:44:33;;;;;;;4.43;1.45;;;;;;;;;;5494041;26;20002;-80
2024/04/10 10:47:07;;;;;;;4.45;1.02;;;;;;;;;;5494036;26;20005;-80
2024/04/10 10:49:37;;;;;;;3.10;1.10;;;;;;;;;;5493287;26;20006;-80
2024/04/10 10:52:05;;;;;;;6.63;1.45;;;;;;;;;;5494522;26;20539;-79
2024/04/10 10:54:35;;;;;;;3.55;1.48;;;;;;;;;;5494799;26;20014;-80
2024/04/10 10:57:03;;;;;;;2.92;1.25;;;;;;;;;;5493656;26;20030;-80
2024/04/10 10:59:30;;;;;;;3.10;1.10;;;;;;;;;;5491669;26;20002;-80
2024/04/10 11:02:00;;;;;;;3.85;1.33;;;;;;;;;;5493641;26;19994;-80
2024/04/10 11:04:28;;;;;;;2.83;1.30;;;;;;;;;;5493911;26;20339;-80
2024/04/10 11:07:05;;;;;;;3.65;1.60;;;;;;;;;;5492142;26;19998;-82
2024/04/10 11:09:33;;;;;;;3.97;1.50;;;;;;;;;;5521804;26;20006;-83
2024/04/10 11:12:02;;;;;;;2.28;1.00;;;;;;;;;;5492349;26;20002;-81
2024/04/10 11:14:32;;;;;;;2.17;1.25;;;;;;;;;;5490516;26;20010;-81
2024/04/10 11:17:00;;;;;;;2.65;1.20;;;;;;;;;;5492150;26;20450;-81
2024/04/10 11:19:28;;;;;;;2.55;0.90;;;;;;;;;;5520774;26;20030;-80
2024/04/10 11:22:21;;;;;;;1.63;1.17;;;;;;;;;;5455334;26;19995;-80
2024/04/10 11:24:49;;;;;;;2.70;1.20;;;;;;;;;;5457093;26;20452;-80
2024/04/10 11:27:18;;;;;;;2.78;1.13;;;;;;;;;;5485993;26;20003;-81
2024/04/10 11:29:58;;;;;;;2.42;0.93;;;;;;;;;;5486565;26;20067;-80
2024/04/10 11:32:25;;;;;;;1.63;1.13;;;;;;;;;;5497213;26;20014;-81
2024/04/10 11:34:53;;;;;;;6.15;1.60;;;;;;;;;;5493954;26;20012;-81
2024/04/10 11:37:36;;;;;;;2.55;1.33;;;;;;;;;;5492144;26;20005;-82
2024/04/10 11:40:11;;;;;;;2.58;1.40;;;;;;;;;;5493499;26;20455;-81
2024/04/10 11:42:40;;;;;;;3.10;1.17;;;;;;;;;;5522509;26;20459;-81
2024/04/10 11:45:20;;;;;;;2.88;1.05;;;;;;;;;;5471348;26;20040;-80
2024/04/10 11:47:48;;;;;;;3.63;1.15;;;;;;;;;;5473099;26;20030;-81
2024/04/10 11:50:16;;;;;;;2.25;0.93;;;;;;;;;;5493125;26;19998;-81
2024/04/10 11:52:48;;;;;;;3.28;1.10;;;;;;;;;;5492413;26;20006;-81
2024/04/10 11:55:15;;;;;;;3.65;0.90;;;;;;;;;;5493011;26;19994;-79
2024/04/10 11:57:45;;;;;;;3.03;1.00;;;;;;;;;;5493066;26;20009;-81
2024/04/10 12:00:14;;;;;;;2.20;0.80;;;;;;;;;;5491469;26;20357;-81
2024/04/10 12:02:42;;;;;;;2.85;1.02;;;;;;;;;;5491256;26;20034;-81
2024/04/10 12:05:10;;;;;;;3.53;0.95;;;;;;;;;;5494100;26;20387;-81
2024/04/10 12:07:38;;;;;;;2.78;0.90;;;;;;;;;;5493151;26;20009;-80
2024/04/10 12:10:06;;;;;;;1.42;0.88;;;;;;;;;;5493260;26;20005;-79
2024/04/10 12:12:34;;;;;;;1.70;1.08;;;;;;;;;;5490569;26;20486;-80
2024/04/10 12:15:02;;;;;;;1.13;0.88;;;;;;;;;;5492008;26;19998;-81
2024/04/10 12:17:30;;;;;;;2.20;0.80;;;;;;;;;;5491049;26;20403;-81
2024/04/10 12:19:59;;;;;;;3.63;0.80;;;;;;;;;;5491171;26;19998;-81
2024/04/10 12:22:26;;;;;;;3.05;1.00;;;;;;;;;;5482134;26;20070;-82
2024/04/10 12:24:54;;;;;;;3.05;0.80;;;;;;;;;;5487807;26;20006;-82
2024/04/10 12:27:21;;;;;;;2.47;0.90;;;;;;;;;;5492907;26;20043;-82
2024/04/10 12:29:49;;;;;;;1.48;0.70;;;;;;;;;;5521845;25;20000;-80
2024/04/10 12:32:17;;;;;;;2.80;0.88;;;;;;;;;;5494243;26;20002;-82
2024/04/10 12:34:44;;;;;;;2.38;0.77;;;;;;;;;;5520758;26;20009;-80
2024/04/10 12:39:58;;;;;;;2.50;1.30;;;;;;;;;;5492030;26;20061;-82
2024/04/10 12:42:25;;;;;;;3.15;1.10;;;;;;;;;;5476878;26;20033;-82
2024/04/10 12:44:53;;;;;;;4.70;1.10;;;;;;;;;;5490939;26;19998;-82
2024/04/10 12:47:20;;;;;;;4.75;1.52;;;;;;;;;;5522559;26;20006;-82
2024/04/10 12:49:48;;;;;;;5.65;1.20;;;;;;;;;;5493917;26;20320;-83
2024/04/10 12:52:16;;;;;;;2.97;1.27;;;;;;;;;;5492385;26;20470;-84
2024/04/10 12:54:44;;;;;;;2.25;1.05;;;;;;;;;;5493904;26;20017;-82
2024/04/10 12:57:13;;;;;;;1.17;0.80;;;;;;;;;;5490165;26;20017;-82
2024/04/10 12:59:40;;;;;;;4.07;1.25;;;;;;;;;;5490371;26;19999;-82
2024/04/10 13:02:08;;;;;;;2.03;0.70;;;;;;;;;;5475731;26;20021;-84
2024/04/10 13:04:40;;;;;;;1.98;0.98;;;;;;;;;;5494625;26;19998;-83
2024/04/10 13:07:14;;;;;;;4.13;1.20;;;;;;;;;;5494208;26;20033;-83
2024/04/10 13:09:41;;;;;;;3.20;0.98;;;;;;;;;;5493683;26;19998;-83
2024/04/10 13:12:08;;;;;;;3.03;0.90;;;;;;;;;;5493320;26;19998;-83
2024/04/10 13:14:36;;;;;;;1.30;0.80;;;;;;;;;;5497640;26;20038;-83
2024/04/10 13:17:04;;;;;;;2.72;1.05;;;;;;;;;;5497561;26;20478;-82
2024/04/10 13:19:34;;;;;;;4.35;1.45;;;;;;;;;;5490639;26;19998;-82
2024/04/10 13:22:02;;;;;;;4.43;1.23;;;;;;;;;;5491873;26;20025;-80
2024/04/10 13:24:31;;;;;;;2.50;0.98;;;;;;;;;;5489130;26;20002;-81
2024/04/10 13:26:59;;;;;;;3.83;1.08;;;;;;;;;;5490000;26;20006;-82
2024/04/10 13:29:27;;;;;;;4.90;1.30;;;;;;;;;;5491559;26;19998;-82
2024/04/10 13:31:55;;;;;;;4.25;1.30;;;;;;;;;;5490389;26;20017;-82
2024/04/10 13:34:22;;;;;;;1.95;1.00;;;;;;;;;;5489630;26;20002;-82
2024/04/10 13:36:50;;;;;;;3.28;1.15;;;;;;;;;;5492035;26;20006;-82
2024/04/10 13:39:18;;;;;;;6.55;1.25;;;;;;;;;;5490128;26;20010;-82
2024/04/10 13:41:45;;;;;;;3.97;1.20;;;;;;;;;;5520375;25;20073;-82
2024/04/10 13:44:13;;;;;;;3.20;1.08;;;;;;;;;;5520298;25;20054;-82
2024/04/10 13:46:40;;;;;;;2.40;1.02;;;;;;;;;;5489248;26;20005;-82
2024/04/10 13:49:08;;;;;;;2.92;1.10;;;;;;;;;;5489181;26;20018;-82
2024/04/10 13:51:36;;;;;;;3.50;0.93;;;;;;;;;;5489222;26;20021;-82
2024/04/10 13:54:04;;;;;;;5.68;1.20;;;;;;;;;;5489552;26;20027;-83
2024/04/10 13:56:32;;;;;;;2.33;0.93;;;;;;;;;;5492372;26;20006;-83
2024/04/10 13:59:00;;;;;;;3.15;1.35;;;;;;;;;;5491630;26;20026;-83
2024/04/10 14:01:27;;;;;;;5.60;1.30;;;;;;;;;;5493312;26;20042;-83
2024/04/10 14:03:55;;;;;;;3.45;0.85;;;;;;;;;;5495345;26;20073;-83
2024/04/10 14:06:24;;;;;;;1.92;0.90;;;;;;;;;;5495521;26;20017;-83
2024/04/10 14:08:53;;;;;;;4.45;0.98;;;;;;;;;;5497154;26;19998;-83
2024/04/10 14:11:22;;;;;;;2.85;1.00;;;;;;;;;;5496550;26;20056;-82
2024/04/10 14:13:50;;;;;;;2.78;0.73;;;;;;;;;;5495205;26;20048;-82
2024/04/10 14:16:19;;;;;;;2.25;0.80;;;;;;;;;;5493029;26;20002;-82
2024/04/10 14:18:47;;;;;;;5.25;1.05;;;;;;;;;;5490905;26;20002;-81
2024/04/10 14:21:15;;;;;;;2.30;0.95;;;;;;;;;;5490891;26;20002;-82
2024/04/10 14:23:43;;;;;;;3.40;1.05;;;;;;;;;;5491935;26;20073;-82
2024/04/10 14:26:12;;;;;;;2.15;0.82;;;;;;;;;;5493188;26;20030;-82
2024/04/10 14:28:40;;;;;;;2.28;1.15;;;;;;;;;;5491743;26;20034;-81
2024/04/10 14:31:08;;;;;;;1.52;1.20;;;;;;;;;;5475804;26;20037;-84
2024/04/10 14:33:36;;;;;;;2.28;0.88;;;;;;;;;;5484224;26;20007;-83
2024/04/10 14:36:05;;;;;;;2.38;1.20;;;;;;;;;;5492242;26;20401;-82
2024/04/10 14:38:33;;;;;;;2.72;1.13;;;;;;;;;;5492848;26;20047;-82
2024/04/10 14:41:01;;;;;;;2.40;0.93;;;;;;;;;;5492548;26;20038;-82
2024/04/10 14:43:29;;;;;;;2.20;1.73;;;;;;;;;;5492090;26;20002;-83
2024/04/10 14:45:57;;;;;;;1.52;0.85;;;;;;;;;;5493364;26;20016;-82
2024/04/10 14:48:24;;;;;;;3.55;1.90;;;;;;;;;;5492019;26;19998;-82
2024/04/10 14:50:56;;;;;;;1.35;0.90;;;;;;;;;;5492517;26;20010;-82
2024/04/10 14:53:24;;;;;;;2.83;0.90;;;;;;;;;;5494315;26;19998;-82
2024/04/10 14:56:09;;;;;;;2.08;0.98;;;;;;;;;;5491143;26;20479;-83
2024/04/10 14:58:43;;;;;;;2.20;0.70;;;;;;;;;;5492663;26;20343;-83
2024/04/10 15:01:11;;;;;;;3.97;1.30;;;;;;;;;;5477759;26;20452;-83
2024/04/10 15:03:38;;;;;;;2.70;1.20;;;;;;;;;;5507879;25;20003;-83